Burwell, NE

9:19 AM CST on February 08, 2016 (GMT -0600)
Sharp | | Change Station
CLOSE
Current Station
Airport
Location: Ord,
Elevation: 2070 ft
Nearby Weather Stations

Elev 2070 ft 41.62 °N, 98.95 °W | Updated 26 minutes ago

Clear
Clear
27 °F
Feels Like 11 °F
N
29
Wind Variable Wind from NW
Gusts 37 mph

Today
High -- | Low -- °F
--% Chance of Precip.
Yesterday
High -- | Low -- °F
Precip. -- in
Pressure 30.27 in
Visibility 10.0 miles
Clouds Clear
Windchill 11 °F
Dew Point 16 °F
Humidity 63%
Rainfall 0.00 in
Snow Depth Not available.
7:41 AM 6:00 PM
New Moon, 0% visible
METAR KODX 081453Z AUTO 32025G32KT 10SM CLR M03/M09 A3019 RMK AO2 PK WND 33035/1420 SLP249 T10281089 51016
Pressure 30.27 in
Visibility 10.0 miles
Clouds Clear
Windchill 11 °F
Dew Point 16 °F
Humidity 63%
Rainfall 0.00 in
Snow Depth Not available.
7:41 AM 6:00 PM
New Moon, 0% visible
METAR KODX 081453Z AUTO 32025G32KT 10SM CLR M03/M09 A3019 RMK AO2 PK WND 33035/1420 SLP249 T10281089 51016

10-Day Weather Forecast

Almanac

Astronomy

Feb. 08, 2016 Rise Set
Actual Time
Civil Twilight
Nautical Twilight
Astronomical Twilight
Moon
Length of Visible Light
Length of Day
Tomorrow will be .
, % of the Moon is Illuminated

Today's Extremes

State Highs State Lows

Community

WunderPhotos

Upload Photos

1,891,450 photos uploaded!

WunderBlog® & News

Nearby

Air Quality

  Air Quality AQ Index Pollutant
Not available.

Snow Depth

Station Depth Elevation

Earthquake Activity

City Distance Mag. Time & Date
Minimum magnitude displayed is 2.5.

Coastal Water Temperatures

Place Temperature

Stations

Nearby Weather Stations

Station Location Temp. Windchill Dew Point Humidity Wind Precip. Elev Updated Type
                   

Watches & Warnings

There are currently no watches in effect.